sensor_id;sensor_type;location;lat;lon;timestamp;P1;durP1;ratioP1;P2;durP2;ratioP2
40827;SDS011;26549;50.918;5.338;2023-02-18T00:00:16;9.68;;;6.13;;
40827;SDS011;26549;50.918;5.338;2023-02-18T00:02:44;8.80;;;6.63;;
40827;SDS011;26549;50.918;5.338;2023-02-18T00:05:13;11.93;;;6.20;;
40827;SDS011;26549;50.918;5.338;2023-02-18T00:07:41;7.22;;;6.00;;
40827;SDS011;26549;50.918;5.338;2023-02-18T00:10:09;8.73;;;7.05;;
40827;SDS011;26549;50.918;5.338;2023-02-18T00:12:36;6.93;;;5.88;;
40827;SDS011;26549;50.918;5.338;2023-02-18T00:15:04;8.85;;;6.03;;
40827;SDS011;26549;50.918;5.338;2023-02-18T00:17:31;9.13;;;6.10;;
40827;SDS011;26549;50.918;5.338;2023-02-18T00:19:57;9.13;;;6.30;;
40827;SDS011;26549;50.918;5.338;2023-02-18T00:22:22;8.65;;;6.88;;
40827;SDS011;26549;50.918;5.338;2023-02-18T00:24:49;9.43;;;6.72;;
40827;SDS011;26549;50.918;5.338;2023-02-18T00:27:15;9.80;;;5.90;;
40827;SDS011;26549;50.918;5.338;2023-02-18T00:29:41;8.85;;;6.80;;
40827;SDS011;26549;50.918;5.338;2023-02-18T00:32:08;9.43;;;7.00;;
40827;SDS011;26549;50.918;5.338;2023-02-18T00:34:34;8.75;;;6.72;;
40827;SDS011;26549;50.918;5.338;2023-02-18T00:37:00;8.88;;;7.97;;
40827;SDS011;26549;50.918;5.338;2023-02-18T00:39:26;9.55;;;6.72;;
40827;SDS011;26549;50.918;5.338;2023-02-18T00:41:52;9.95;;;7.65;;
40827;SDS011;26549;50.918;5.338;2023-02-18T00:44:20;11.25;;;8.93;;
40827;SDS011;26549;50.918;5.338;2023-02-18T00:46:45;11.63;;;7.25;;
40827;SDS011;26549;50.918;5.338;2023-02-18T00:49:13;12.98;;;8.65;;
40827;SDS011;26549;50.918;5.338;2023-02-18T00:51:41;13.40;;;8.95;;
40827;SDS011;26549;50.918;5.338;2023-02-18T00:54:07;13.02;;;8.43;;
40827;SDS011;26549;50.918;5.338;2023-02-18T00:56:35;11.32;;;8.52;;
40827;SDS011;26549;50.918;5.338;2023-02-18T00:59:07;14.18;;;8.77;;
40827;SDS011;26549;50.918;5.338;2023-02-18T01:01:34;11.68;;;8.32;;
40827;SDS011;26549;50.918;5.338;2023-02-18T01:04:00;11.23;;;8.85;;
40827;SDS011;26549;50.918;5.338;2023-02-18T01:06:26;12.88;;;7.45;;
40827;SDS011;26549;50.918;5.338;2023-02-18T01:08:52;11.02;;;7.60;;
40827;SDS011;26549;50.918;5.338;2023-02-18T01:11:19;11.10;;;7.70;;
40827;SDS011;26549;50.918;5.338;2023-02-18T01:13:45;11.98;;;7.47;;
40827;SDS011;26549;50.918;5.338;2023-02-18T01:16:10;13.52;;;7.40;;
40827;SDS011;26549;50.918;5.338;2023-02-18T01:18:36;11.73;;;6.85;;
40827;SDS011;26549;50.918;5.338;2023-02-18T01:21:03;10.93;;;7.72;;
40827;SDS011;26549;50.918;5.338;2023-02-18T01:23:33;11.75;;;7.13;;
40827;SDS011;26549;50.918;5.338;2023-02-18T01:26:00;12.45;;;7.75;;
40827;SDS011;26549;50.918;5.338;2023-02-18T01:28:26;15.10;;;8.27;;
40827;SDS011;26549;50.918;5.338;2023-02-18T01:30:52;13.77;;;8.30;;
40827;SDS011;26549;50.918;5.338;2023-02-18T01:33:18;12.35;;;7.75;;
40827;SDS011;26549;50.918;5.338;2023-02-18T01:35:44;13.02;;;7.68;;
40827;SDS011;26549;50.918;5.338;2023-02-18T01:38:10;12.43;;;6.90;;
40827;SDS011;26549;50.918;5.338;2023-02-18T01:40:42;11.25;;;7.78;;
40827;SDS011;26549;50.918;5.338;2023-02-18T01:43:16;14.48;;;7.82;;
40827;SDS011;26549;50.918;5.338;2023-02-18T01:45:49;12.57;;;7.32;;
40827;SDS011;26549;50.918;5.338;2023-02-18T01:48:37;12.55;;;7.32;;
40827;SDS011;26549;50.918;5.338;2023-02-18T01:51:14;13.82;;;7.10;;
40827;SDS011;26549;50.918;5.338;2023-02-18T01:53:44;12.35;;;7.47;;
40827;SDS011;26549;50.918;5.338;2023-02-18T01:56:28;13.45;;;7.50;;
40827;SDS011;26549;50.918;5.338;2023-02-18T01:59:00;11.60;;;7.20;;
40827;SDS011;26549;50.918;5.338;2023-02-18T02:01:31;11.82;;;7.07;;
40827;SDS011;26549;50.918;5.338;2023-02-18T02:03:57;10.20;;;6.30;;
40827;SDS011;26549;50.918;5.338;2023-02-18T02:06:24;9.38;;;4.95;;
40827;SDS011;26549;50.918;5.338;2023-02-18T02:08:52;7.38;;;4.90;;
40827;SDS011;26549;50.918;5.338;2023-02-18T02:11:22;8.55;;;4.25;;
40827;SDS011;26549;50.918;5.338;2023-02-18T02:16:57;4.47;;;2.90;;
40827;SDS011;26549;50.918;5.338;2023-02-18T02:19:41;6.60;;;3.15;;
40827;SDS011;26549;50.918;5.338;2023-02-18T02:41:45;2.13;;;1.70;;
40827;SDS011;26549;50.918;5.338;2023-02-18T02:44:38;2.30;;;1.50;;
40827;SDS011;26549;50.918;5.338;2023-02-18T02:50:23;2.40;;;1.70;;
40827;SDS011;26549;50.918;5.338;2023-02-18T02:52:59;2.13;;;1.92;;
40827;SDS011;26549;50.918;5.338;2023-02-18T02:55:31;2.55;;;1.80;;
40827;SDS011;26549;50.918;5.338;2023-02-18T02:57:57;3.35;;;1.58;;
40827;SDS011;26549;50.918;5.338;2023-02-18T03:10:07;2.08;;;1.83;;
40827;SDS011;26549;50.918;5.338;2023-02-18T03:18:22;2.40;;;1.70;;
40827;SDS011;26549;50.918;5.338;2023-02-18T03:21:18;1.77;;;1.30;;
40827;SDS011;26549;50.918;5.338;2023-02-18T03:24:12;4.43;;;2.25;;
40827;SDS011;26549;50.918;5.338;2023-02-18T03:26:47;5.22;;;1.85;;
40827;SDS011;26549;50.918;5.338;2023-02-18T03:29:19;2.50;;;1.90;;
40827;SDS011;26549;50.918;5.338;2023-02-18T03:31:49;2.22;;;1.85;;
40827;SDS011;26549;50.918;5.338;2023-02-18T03:34:25;1.50;;;1.40;;
40827;SDS011;26549;50.918;5.338;2023-02-18T03:36:55;2.35;;;1.60;;
40827;SDS011;26549;50.918;5.338;2023-02-18T03:39:23;1.95;;;1.70;;
40827;SDS011;26549;50.918;5.338;2023-02-18T03:41:53;3.40;;;1.90;;
40827;SDS011;26549;50.918;5.338;2023-02-18T03:44:22;3.55;;;1.75;;
40827;SDS011;26549;50.918;5.338;2023-02-18T03:46:52;1.65;;;1.50;;
40827;SDS011;26549;50.918;5.338;2023-02-18T03:49:19;2.25;;;1.30;;
40827;SDS011;26549;50.918;5.338;2023-02-18T03:51:47;2.10;;;1.48;;
40827;SDS011;26549;50.918;5.338;2023-02-18T03:54:14;2.17;;;1.67;;
40827;SDS011;26549;50.918;5.338;2023-02-18T03:56:40;3.78;;;1.58;;
40827;SDS011;26549;50.918;5.338;2023-02-18T03:59:07;2.40;;;1.75;;
40827;SDS011;26549;50.918;5.338;2023-02-18T04:04:02;1.92;;;1.73;;
40827;SDS011;26549;50.918;5.338;2023-02-18T04:06:28;1.38;;;1.27;;
40827;SDS011;26549;50.918;5.338;2023-02-18T04:08:55;1.75;;;1.60;;
40827;SDS011;26549;50.918;5.338;2023-02-18T04:11:21;2.65;;;1.48;;
40827;SDS011;26549;50.918;5.338;2023-02-18T04:13:48;1.67;;;1.58;;
40827;SDS011;26549;50.918;5.338;2023-02-18T04:16:16;1.77;;;1.52;;
40827;SDS011;26549;50.918;5.338;2023-02-18T04:18:42;2.38;;;2.13;;
40827;SDS011;26549;50.918;5.338;2023-02-18T04:21:09;2.35;;;1.75;;
40827;SDS011;26549;50.918;5.338;2023-02-18T04:23:36;2.55;;;2.03;;
40827;SDS011;26549;50.918;5.338;2023-02-18T04:26:02;3.08;;;1.90;;
40827;SDS011;26549;50.918;5.338;2023-02-18T04:28:28;2.65;;;2.10;;
40827;SDS011;26549;50.918;5.338;2023-02-18T04:30:55;2.30;;;2.10;;
40827;SDS011;26549;50.918;5.338;2023-02-18T04:33:20;4.00;;;2.13;;
40827;SDS011;26549;50.918;5.338;2023-02-18T04:35:46;4.70;;;2.55;;
40827;SDS011;26549;50.918;5.338;2023-02-18T04:38:13;3.45;;;2.65;;
40827;SDS011;26549;50.918;5.338;2023-02-18T04:40:40;2.80;;;2.42;;
40827;SDS011;26549;50.918;5.338;2023-02-18T04:43:06;2.78;;;1.98;;
40827;SDS011;26549;50.918;5.338;2023-02-18T04:45:33;3.72;;;2.78;;
40827;SDS011;26549;50.918;5.338;2023-02-18T04:47:59;4.38;;;3.13;;
40827;SDS011;26549;50.918;5.338;2023-02-18T04:50:25;2.70;;;1.63;;
40827;SDS011;26549;50.918;5.338;2023-02-18T04:52:52;2.63;;;2.35;;
40827;SDS011;26549;50.918;5.338;2023-02-18T04:55:18;2.63;;;2.13;;
40827;SDS011;26549;50.918;5.338;2023-02-18T04:57:44;2.85;;;1.73;;
40827;SDS011;26549;50.918;5.338;2023-02-18T05:00:12;2.67;;;1.98;;
40827;SDS011;26549;50.918;5.338;2023-02-18T05:02:40;2.20;;;1.70;;
40827;SDS011;26549;50.918;5.338;2023-02-18T05:05:07;2.28;;;1.70;;
40827;SDS011;26549;50.918;5.338;2023-02-18T05:07:34;1.70;;;1.60;;
40827;SDS011;26549;50.918;5.338;2023-02-18T05:10:01;2.20;;;1.90;;
40827;SDS011;26549;50.918;5.338;2023-02-18T05:12:28;2.05;;;1.60;;
40827;SDS011;26549;50.918;5.338;2023-02-18T05:14:53;2.28;;;2.05;;
40827;SDS011;26549;50.918;5.338;2023-02-18T05:17:19;1.60;;;1.50;;
40827;SDS011;26549;50.918;5.338;2023-02-18T05:19:47;2.60;;;1.42;;
40827;SDS011;26549;50.918;5.338;2023-02-18T05:22:13;2.20;;;1.80;;
40827;SDS011;26549;50.918;5.338;2023-02-18T05:24:40;3.00;;;1.80;;
40827;SDS011;26549;50.918;5.338;2023-02-18T05:27:06;1.77;;;1.67;;
40827;SDS011;26549;50.918;5.338;2023-02-18T05:29:33;2.53;;;2.22;;
40827;SDS011;26549;50.918;5.338;2023-02-18T05:32:01;3.20;;;1.40;;
40827;SDS011;26549;50.918;5.338;2023-02-18T05:34:27;1.58;;;1.48;;
40827;SDS011;26549;50.918;5.338;2023-02-18T05:36:53;1.77;;;1.27;;
40827;SDS011;26549;50.918;5.338;2023-02-18T05:39:20;2.65;;;1.65;;
40827;SDS011;26549;50.918;5.338;2023-02-18T05:41:46;4.93;;;1.63;;
40827;SDS011;26549;50.918;5.338;2023-02-18T05:44:13;1.27;;;1.00;;
40827;SDS011;26549;50.918;5.338;2023-02-18T05:46:54;1.77;;;1.48;;
40827;SDS011;26549;50.918;5.338;2023-02-18T05:49:21;1.50;;;1.35;;
40827;SDS011;26549;50.918;5.338;2023-02-18T05:51:47;1.50;;;1.40;;
40827;SDS011;26549;50.918;5.338;2023-02-18T05:54:14;1.15;;;0.90;;
40827;SDS011;26549;50.918;5.338;2023-02-18T05:56:40;1.10;;;1.00;;
40827;SDS011;26549;50.918;5.338;2023-02-18T05:59:05;1.42;;;1.15;;
40827;SDS011;26549;50.918;5.338;2023-02-18T06:01:32;1.52;;;1.10;;
40827;SDS011;26549;50.918;5.338;2023-02-18T06:03:59;1.40;;;1.30;;
40827;SDS011;26549;50.918;5.338;2023-02-18T06:06:27;1.33;;;1.20;;
40827;SDS011;26549;50.918;5.338;2023-02-18T06:11:22;5.18;;;2.15;;
40827;SDS011;26549;50.918;5.338;2023-02-18T06:13:48;3.15;;;1.88;;
40827;SDS011;26549;50.918;5.338;2023-02-18T06:16:14;1.75;;;1.30;;
40827;SDS011;26549;50.918;5.338;2023-02-18T06:18:39;1.48;;;1.27;;
40827;SDS011;26549;50.918;5.338;2023-02-18T06:21:06;1.20;;;0.98;;
40827;SDS011;26549;50.918;5.338;2023-02-18T06:23:33;1.80;;;1.30;;
40827;SDS011;26549;50.918;5.338;2023-02-18T06:25:59;1.45;;;1.33;;
40827;SDS011;26549;50.918;5.338;2023-02-18T06:28:24;2.65;;;1.48;;
40827;SDS011;26549;50.918;5.338;2023-02-18T06:30:51;1.15;;;1.05;;
40827;SDS011;26549;50.918;5.338;2023-02-18T06:33:17;2.20;;;1.20;;
40827;SDS011;26549;50.918;5.338;2023-02-18T06:38:39;3.38;;;1.25;;
40827;SDS011;26549;50.918;5.338;2023-02-18T06:41:06;2.28;;;1.08;;
40827;SDS011;26549;50.918;5.338;2023-02-18T06:43:32;1.92;;;0.80;;
40827;SDS011;26549;50.918;5.338;2023-02-18T06:45:59;1.98;;;1.00;;
40827;SDS011;26549;50.918;5.338;2023-02-18T06:48:25;2.45;;;1.15;;
40827;SDS011;26549;50.918;5.338;2023-02-18T06:50:54;2.60;;;1.15;;
40827;SDS011;26549;50.918;5.338;2023-02-18T06:53:20;2.00;;;1.25;;
40827;SDS011;26549;50.918;5.338;2023-02-18T06:55:46;3.75;;;1.08;;
40827;SDS011;26549;50.918;5.338;2023-02-18T06:58:12;3.90;;;1.25;;
40827;SDS011;26549;50.918;5.338;2023-02-18T07:00:39;2.72;;;1.92;;
40827;SDS011;26549;50.918;5.338;2023-02-18T07:03:05;2.80;;;1.25;;
40827;SDS011;26549;50.918;5.338;2023-02-18T07:05:31;5.38;;;1.83;;
40827;SDS011;26549;50.918;5.338;2023-02-18T07:07:58;3.97;;;1.70;;
40827;SDS011;26549;50.918;5.338;2023-02-18T07:10:25;2.63;;;1.45;;
40827;SDS011;26549;50.918;5.338;2023-02-18T07:12:53;4.03;;;1.77;;
40827;SDS011;26549;50.918;5.338;2023-02-18T07:15:19;3.97;;;1.92;;
40827;SDS011;26549;50.918;5.338;2023-02-18T07:17:48;6.57;;;1.70;;
40827;SDS011;26549;50.918;5.338;2023-02-18T07:20:15;6.53;;;1.98;;
40827;SDS011;26549;50.918;5.338;2023-02-18T07:22:43;4.00;;;1.55;;
40827;SDS011;26549;50.918;5.338;2023-02-18T07:25:10;7.65;;;2.60;;
40827;SDS011;26549;50.918;5.338;2023-02-18T07:27:37;6.97;;;1.60;;
40827;SDS011;26549;50.918;5.338;2023-02-18T07:30:03;6.88;;;1.95;;
40827;SDS011;26549;50.918;5.338;2023-02-18T07:32:30;6.20;;;2.10;;
40827;SDS011;26549;50.918;5.338;2023-02-18T07:34:56;9.32;;;3.13;;
40827;SDS011;26549;50.918;5.338;2023-02-18T07:37:21;10.18;;;1.92;;
40827;SDS011;26549;50.918;5.338;2023-02-18T07:39:47;5.47;;;2.00;;
40827;SDS011;26549;50.918;5.338;2023-02-18T07:42:13;6.85;;;1.52;;
40827;SDS011;26549;50.918;5.338;2023-02-18T07:44:40;8.35;;;1.98;;
40827;SDS011;26549;50.918;5.338;2023-02-18T07:47:06;4.15;;;1.80;;
40827;SDS011;26549;50.918;5.338;2023-02-18T07:49:34;6.00;;;1.50;;
40827;SDS011;26549;50.918;5.338;2023-02-18T07:52:00;4.65;;;1.35;;
40827;SDS011;26549;50.918;5.338;2023-02-18T07:54:27;5.28;;;1.75;;
40827;SDS011;26549;50.918;5.338;2023-02-18T07:56:53;6.40;;;1.63;;
40827;SDS011;26549;50.918;5.338;2023-02-18T07:59:21;6.68;;;2.00;;
40827;SDS011;26549;50.918;5.338;2023-02-18T08:01:47;7.78;;;1.67;;
40827;SDS011;26549;50.918;5.338;2023-02-18T08:04:12;9.90;;;2.85;;
40827;SDS011;26549;50.918;5.338;2023-02-18T08:06:40;6.63;;;1.55;;
40827;SDS011;26549;50.918;5.338;2023-02-18T08:09:10;10.68;;;1.83;;
40827;SDS011;26549;50.918;5.338;2023-02-18T08:11:37;7.78;;;2.13;;
40827;SDS011;26549;50.918;5.338;2023-02-18T08:14:03;6.15;;;2.85;;
40827;SDS011;26549;50.918;5.338;2023-02-18T08:16:29;4.97;;;1.80;;
40827;SDS011;26549;50.918;5.338;2023-02-18T08:18:55;5.88;;;1.67;;
40827;SDS011;26549;50.918;5.338;2023-02-18T08:21:21;11.20;;;2.95;;
40827;SDS011;26549;50.918;5.338;2023-02-18T08:23:49;5.80;;;2.50;;
40827;SDS011;26549;50.918;5.338;2023-02-18T08:26:15;10.48;;;1.95;;
40827;SDS011;26549;50.918;5.338;2023-02-18T08:28:42;12.07;;;3.03;;
40827;SDS011;26549;50.918;5.338;2023-02-18T08:31:19;10.60;;;2.45;;
40827;SDS011;26549;50.918;5.338;2023-02-18T08:33:47;8.07;;;2.55;;
40827;SDS011;26549;50.918;5.338;2023-02-18T08:36:13;10.45;;;3.72;;
40827;SDS011;26549;50.918;5.338;2023-02-18T08:38:39;8.35;;;3.05;;
40827;SDS011;26549;50.918;5.338;2023-02-18T08:41:06;6.13;;;1.90;;
40827;SDS011;26549;50.918;5.338;2023-02-18T08:43:33;13.15;;;2.55;;
40827;SDS011;26549;50.918;5.338;2023-02-18T08:45:59;5.25;;;1.80;;
40827;SDS011;26549;50.918;5.338;2023-02-18T08:48:25;9.98;;;1.63;;
40827;SDS011;26549;50.918;5.338;2023-02-18T08:50:51;10.73;;;3.20;;
40827;SDS011;26549;50.918;5.338;2023-02-18T08:53:17;5.88;;;2.13;;
40827;SDS011;26549;50.918;5.338;2023-02-18T08:55:43;13.52;;;2.70;;
40827;SDS011;26549;50.918;5.338;2023-02-18T08:58:09;9.70;;;2.78;;
40827;SDS011;26549;50.918;5.338;2023-02-18T09:00:35;6.55;;;2.63;;
40827;SDS011;26549;50.918;5.338;2023-02-18T09:03:02;7.70;;;2.83;;
40827;SDS011;26549;50.918;5.338;2023-02-18T09:05:28;7.72;;;1.73;;
40827;SDS011;26549;50.918;5.338;2023-02-18T09:07:54;9.52;;;2.78;;
40827;SDS011;26549;50.918;5.338;2023-02-18T09:10:21;10.63;;;2.53;;
40827;SDS011;26549;50.918;5.338;2023-02-18T09:12:47;5.22;;;1.60;;
40827;SDS011;26549;50.918;5.338;2023-02-18T09:15:13;7.28;;;1.60;;
40827;SDS011;26549;50.918;5.338;2023-02-18T09:17:39;9.73;;;1.70;;
40827;SDS011;26549;50.918;5.338;2023-02-18T09:20:05;11.30;;;1.75;;
40827;SDS011;26549;50.918;5.338;2023-02-18T09:22:34;8.07;;;1.88;;
40827;SDS011;26549;50.918;5.338;2023-02-18T09:25:00;7.13;;;2.00;;
40827;SDS011;26549;50.918;5.338;2023-02-18T09:27:25;9.50;;;2.45;;
40827;SDS011;26549;50.918;5.338;2023-02-18T09:29:51;4.28;;;2.05;;
40827;SDS011;26549;50.918;5.338;2023-02-18T09:32:17;5.53;;;2.05;;
40827;SDS011;26549;50.918;5.338;2023-02-18T09:34:43;7.93;;;1.73;;
40827;SDS011;26549;50.918;5.338;2023-02-18T09:37:09;8.32;;;2.55;;
40827;SDS011;26549;50.918;5.338;2023-02-18T09:39:35;7.07;;;1.80;;
40827;SDS011;26549;50.918;5.338;2023-02-18T09:42:02;7.70;;;1.63;;
40827;SDS011;26549;50.918;5.338;2023-02-18T09:44:33;5.97;;;1.88;;
40827;SDS011;26549;50.918;5.338;2023-02-18T09:47:34;8.38;;;1.52;;
40827;SDS011;26549;50.918;5.338;2023-02-18T09:50:05;11.18;;;2.03;;
40827;SDS011;26549;50.918;5.338;2023-02-18T09:52:45;6.72;;;1.67;;
40827;SDS011;26549;50.918;5.338;2023-02-18T09:57:57;10.93;;;1.70;;
40827;SDS011;26549;50.918;5.338;2023-02-18T10:00:34;5.38;;;1.40;;
40827;SDS011;26549;50.918;5.338;2023-02-18T10:03:12;3.10;;;1.00;;
40827;SDS011;26549;50.918;5.338;2023-02-18T10:05:55;7.15;;;2.60;;
40827;SDS011;26549;50.918;5.338;2023-02-18T10:08:33;2.22;;;1.10;;
40827;SDS011;26549;50.918;5.338;2023-02-18T10:11:29;8.52;;;1.45;;
40827;SDS011;26549;50.918;5.338;2023-02-18T10:14:10;4.43;;;1.67;;
40827;SDS011;26549;50.918;5.338;2023-02-18T10:16:38;5.32;;;1.27;;
40827;SDS011;26549;50.918;5.338;2023-02-18T10:19:19;6.90;;;1.33;;
40827;SDS011;26549;50.918;5.338;2023-02-18T10:21:46;5.30;;;1.23;;
40827;SDS011;26549;50.918;5.338;2023-02-18T10:27:03;3.70;;;1.65;;
40827;SDS011;26549;50.918;5.338;2023-02-18T10:29:30;4.35;;;1.17;;
40827;SDS011;26549;50.918;5.338;2023-02-18T10:34:48;5.03;;;1.63;;
40827;SDS011;26549;50.918;5.338;2023-02-18T10:37:30;4.95;;;1.70;;
40827;SDS011;26549;50.918;5.338;2023-02-18T10:40:32;5.97;;;2.97;;
40827;SDS011;26549;50.918;5.338;2023-02-18T10:52:21;2.67;;;1.52;;
40827;SDS011;26549;50.918;5.338;2023-02-18T10:54:50;4.35;;;1.75;;
40827;SDS011;26549;50.918;5.338;2023-02-18T10:57:23;4.07;;;1.55;;
40827;SDS011;26549;50.918;5.338;2023-02-18T10:59:54;4.22;;;1.30;;
40827;SDS011;26549;50.918;5.338;2023-02-18T11:02:38;7.05;;;1.20;;
40827;SDS011;26549;50.918;5.338;2023-02-18T11:05:11;4.90;;;1.40;;
40827;SDS011;26549;50.918;5.338;2023-02-18T11:07:45;4.30;;;1.40;;
40827;SDS011;26549;50.918;5.338;2023-02-18T11:10:18;3.95;;;1.38;;
40827;SDS011;26549;50.918;5.338;2023-02-18T11:13:02;4.88;;;1.92;;
40827;SDS011;26549;50.918;5.338;2023-02-18T11:15:32;4.50;;;1.80;;
40827;SDS011;26549;50.918;5.338;2023-02-18T11:18:13;2.30;;;1.90;;
40827;SDS011;26549;50.918;5.338;2023-02-18T11:20:56;6.80;;;1.58;;
40827;SDS011;26549;50.918;5.338;2023-02-18T11:23:25;5.93;;;1.73;;
40827;SDS011;26549;50.918;5.338;2023-02-18T11:25:56;5.25;;;1.92;;
40827;SDS011;26549;50.918;5.338;2023-02-18T11:28:27;5.20;;;2.95;;
40827;SDS011;26549;50.918;5.338;2023-02-18T11:31:06;4.25;;;1.77;;
40827;SDS011;26549;50.918;5.338;2023-02-18T11:36:22;4.95;;;2.20;;
40827;SDS011;26549;50.918;5.338;2023-02-18T11:38:56;6.70;;;1.52;;
40827;SDS011;26549;50.918;5.338;2023-02-18T11:41:45;3.95;;;1.67;;
40827;SDS011;26549;50.918;5.338;2023-02-18T11:44:33;5.07;;;1.58;;
40827;SDS011;26549;50.918;5.338;2023-02-18T11:49:39;8.90;;;1.73;;
40827;SDS011;26549;50.918;5.338;2023-02-18T11:55:05;5.45;;;2.38;;
40827;SDS011;26549;50.918;5.338;2023-02-18T11:58:01;7.05;;;1.98;;
40827;SDS011;26549;50.918;5.338;2023-02-18T12:03:17;7.03;;;1.83;;
40827;SDS011;26549;50.918;5.338;2023-02-18T12:05:52;5.40;;;1.75;;
40827;SDS011;26549;50.918;5.338;2023-02-18T12:08:23;7.35;;;1.70;;
40827;SDS011;26549;50.918;5.338;2023-02-18T12:11:09;8.10;;;2.80;;
40827;SDS011;26549;50.918;5.338;2023-02-18T12:13:44;20.20;;;5.85;;
40827;SDS011;26549;50.918;5.338;2023-02-18T12:22:03;4.80;;;2.20;;
40827;SDS011;26549;50.918;5.338;2023-02-18T12:24:47;7.95;;;3.25;;
40827;SDS011;26549;50.918;5.338;2023-02-18T12:36:01;6.03;;;1.90;;
40827;SDS011;26549;50.918;5.338;2023-02-18T12:47:34;4.18;;;2.20;;
40827;SDS011;26549;50.918;5.338;2023-02-18T12:50:21;6.03;;;2.10;;
40827;SDS011;26549;50.918;5.338;2023-02-18T12:56:05;6.10;;;2.90;;
40827;SDS011;26549;50.918;5.338;2023-02-18T13:12:42;5.75;;;2.53;;
40827;SDS011;26549;50.918;5.338;2023-02-18T13:18:33;8.55;;;2.33;;
40827;SDS011;26549;50.918;5.338;2023-02-18T13:21:02;9.45;;;3.20;;
40827;SDS011;26549;50.918;5.338;2023-02-18T13:23:34;10.00;;;3.22;;
40827;SDS011;26549;50.918;5.338;2023-02-18T13:26:13;6.43;;;2.97;;
40827;SDS011;26549;50.918;5.338;2023-02-18T13:28:48;7.07;;;2.28;;
40827;SDS011;26549;50.918;5.338;2023-02-18T13:36:55;7.43;;;2.33;;
40827;SDS011;26549;50.918;5.338;2023-02-18T13:39:35;5.18;;;2.28;;
40827;SDS011;26549;50.918;5.338;2023-02-18T13:42:21;10.00;;;2.60;;
40827;SDS011;26549;50.918;5.338;2023-02-18T13:50:25;6.22;;;2.53;;
40827;SDS011;26549;50.918;5.338;2023-02-18T13:52:58;6.80;;;2.95;;
40827;SDS011;26549;50.918;5.338;2023-02-18T13:58:16;14.85;;;3.38;;
40827;SDS011;26549;50.918;5.338;2023-02-18T14:00:59;7.22;;;2.80;;
40827;SDS011;26549;50.918;5.338;2023-02-18T14:03:34;6.97;;;2.60;;
40827;SDS011;26549;50.918;5.338;2023-02-18T14:06:16;7.30;;;2.58;;
40827;SDS011;26549;50.918;5.338;2023-02-18T14:08:43;9.60;;;2.47;;
40827;SDS011;26549;50.918;5.338;2023-02-18T14:13:49;5.45;;;2.80;;
40827;SDS011;26549;50.918;5.338;2023-02-18T14:19:41;8.80;;;3.13;;
40827;SDS011;26549;50.918;5.338;2023-02-18T14:27:34;11.30;;;3.35;;
40827;SDS011;26549;50.918;5.338;2023-02-18T14:30:44;9.40;;;3.15;;
40827;SDS011;26549;50.918;5.338;2023-02-18T14:32:58;7.25;;;3.15;;
40827;SDS011;26549;50.918;5.338;2023-02-18T14:35:29;4.68;;;2.70;;
40827;SDS011;26549;50.918;5.338;2023-02-18T14:38:14;9.93;;;2.70;;
40827;SDS011;26549;50.918;5.338;2023-02-18T14:43:49;6.97;;;2.58;;
40827;SDS011;26549;50.918;5.338;2023-02-18T14:51:41;10.88;;;3.13;;
40827;SDS011;26549;50.918;5.338;2023-02-18T14:54:14;8.73;;;2.67;;
40827;SDS011;26549;50.918;5.338;2023-02-18T14:57:03;10.48;;;2.85;;
40827;SDS011;26549;50.918;5.338;2023-02-18T14:59:50;4.53;;;2.80;;
40827;SDS011;26549;50.918;5.338;2023-02-18T15:02:23;4.82;;;2.60;;
40827;SDS011;26549;50.918;5.338;2023-02-18T15:04:52;5.13;;;3.17;;
40827;SDS011;26549;50.918;5.338;2023-02-18T15:07:18;5.63;;;3.40;;
40827;SDS011;26549;50.918;5.338;2023-02-18T15:09:47;5.60;;;2.85;;
40827;SDS011;26549;50.918;5.338;2023-02-18T15:12:20;6.15;;;2.78;;
40827;SDS011;26549;50.918;5.338;2023-02-18T15:14:50;4.45;;;2.55;;
40827;SDS011;26549;50.918;5.338;2023-02-18T15:17:21;8.40;;;3.00;;
40827;SDS011;26549;50.918;5.338;2023-02-18T15:19:52;8.68;;;3.22;;
40827;SDS011;26549;50.918;5.338;2023-02-18T15:22:24;6.07;;;2.92;;
40827;SDS011;26549;50.918;5.338;2023-02-18T15:24:52;7.38;;;3.05;;
40827;SDS011;26549;50.918;5.338;2023-02-18T15:27:23;5.18;;;3.05;;
40827;SDS011;26549;50.918;5.338;2023-02-18T15:29:57;5.20;;;3.35;;
40827;SDS011;26549;50.918;5.338;2023-02-18T15:32:39;8.60;;;3.50;;
40827;SDS011;26549;50.918;5.338;2023-02-18T15:35:16;4.03;;;2.95;;
40827;SDS011;26549;50.918;5.338;2023-02-18T15:37:44;8.98;;;3.10;;
40827;SDS011;26549;50.918;5.338;2023-02-18T15:40:14;5.20;;;2.92;;
40827;SDS011;26549;50.918;5.338;2023-02-18T15:42:40;6.60;;;3.15;;
40827;SDS011;26549;50.918;5.338;2023-02-18T15:47:46;4.70;;;2.30;;
40827;SDS011;26549;50.918;5.338;2023-02-18T15:52:48;4.47;;;2.05;;
40827;SDS011;26549;50.918;5.338;2023-02-18T15:57:58;6.00;;;2.30;;
40827;SDS011;26549;50.918;5.338;2023-02-18T16:00:27;7.00;;;2.55;;
40827;SDS011;26549;50.918;5.338;2023-02-18T16:03:10;4.80;;;2.15;;
40827;SDS011;26549;50.918;5.338;2023-02-18T16:05:39;4.43;;;1.98;;
40827;SDS011;26549;50.918;5.338;2023-02-18T16:08:25;4.05;;;2.80;;
40827;SDS011;26549;50.918;5.338;2023-02-18T16:10:55;10.30;;;3.08;;
40827;SDS011;26549;50.918;5.338;2023-02-18T16:13:30;5.80;;;1.92;;
40827;SDS011;26549;50.918;5.338;2023-02-18T16:15:58;3.35;;;2.10;;
40827;SDS011;26549;50.918;5.338;2023-02-18T16:18:57;8.00;;;2.75;;
40827;SDS011;26549;50.918;5.338;2023-02-18T16:23:42;9.77;;;3.00;;
40827;SDS011;26549;50.918;5.338;2023-02-18T16:26:18;9.52;;;2.15;;
40827;SDS011;26549;50.918;5.338;2023-02-18T16:28:46;4.90;;;2.70;;
40827;SDS011;26549;50.918;5.338;2023-02-18T16:31:14;9.95;;;2.42;;
40827;SDS011;26549;50.918;5.338;2023-02-18T16:33:41;11.00;;;3.15;;
40827;SDS011;26549;50.918;5.338;2023-02-18T16:36:12;5.03;;;2.20;;
40827;SDS011;26549;50.918;5.338;2023-02-18T16:38:42;13.40;;;2.83;;
40827;SDS011;26549;50.918;5.338;2023-02-18T16:41:13;5.78;;;2.47;;
40827;SDS011;26549;50.918;5.338;2023-02-18T16:43:39;5.38;;;2.25;;
40827;SDS011;26549;50.918;5.338;2023-02-18T16:46:09;8.45;;;2.47;;
40827;SDS011;26549;50.918;5.338;2023-02-18T16:48:42;9.00;;;2.17;;
40827;SDS011;26549;50.918;5.338;2023-02-18T16:53:58;8.55;;;2.20;;
40827;SDS011;26549;50.918;5.338;2023-02-18T16:56:26;7.35;;;1.85;;
40827;SDS011;26549;50.918;5.338;2023-02-18T16:58:54;8.15;;;2.97;;
40827;SDS011;26549;50.918;5.338;2023-02-18T17:01:23;8.30;;;2.28;;
40827;SDS011;26549;50.918;5.338;2023-02-18T17:03:53;6.88;;;2.22;;
40827;SDS011;26549;50.918;5.338;2023-02-18T17:06:20;6.15;;;2.67;;
40827;SDS011;26549;50.918;5.338;2023-02-18T17:08:46;4.57;;;2.13;;
40827;SDS011;26549;50.918;5.338;2023-02-18T17:11:14;3.35;;;2.00;;
40827;SDS011;26549;50.918;5.338;2023-02-18T17:13:44;10.85;;;2.28;;
40827;SDS011;26549;50.918;5.338;2023-02-18T17:16:12;4.43;;;2.72;;
40827;SDS011;26549;50.918;5.338;2023-02-18T17:18:38;4.53;;;2.03;;
40827;SDS011;26549;50.918;5.338;2023-02-18T17:21:05;2.85;;;1.85;;
40827;SDS011;26549;50.918;5.338;2023-02-18T17:23:33;7.03;;;3.08;;
40827;SDS011;26549;50.918;5.338;2023-02-18T17:25:58;7.03;;;2.50;;
40827;SDS011;26549;50.918;5.338;2023-02-18T17:28:24;6.15;;;2.30;;
40827;SDS011;26549;50.918;5.338;2023-02-18T17:30:55;7.63;;;2.90;;
40827;SDS011;26549;50.918;5.338;2023-02-18T17:33:22;10.90;;;4.57;;
40827;SDS011;26549;50.918;5.338;2023-02-18T17:35:49;8.48;;;4.30;;
40827;SDS011;26549;50.918;5.338;2023-02-18T17:38:17;8.32;;;4.50;;
40827;SDS011;26549;50.918;5.338;2023-02-18T17:40:43;8.73;;;4.10;;
40827;SDS011;26549;50.918;5.338;2023-02-18T17:43:15;11.95;;;4.85;;
40827;SDS011;26549;50.918;5.338;2023-02-18T17:45:43;9.60;;;4.63;;
40827;SDS011;26549;50.918;5.338;2023-02-18T17:48:14;7.32;;;4.57;;
40827;SDS011;26549;50.918;5.338;2023-02-18T17:50:41;10.07;;;5.75;;